Time;durP1;ratioP1;P1;durP2;ratioP2;P2;SDS_P1;SDS_P2;PMS_P1;PMS_P2;Temp;Humidity;BMP_temperature;BMP_pressure;BME280_temperature;BME280_humidity;BME280_pressure;Samples;Min_cycle;Max_cycle;Signal;HPM_P1;HPM_P2
2021/03/17 00:00:00;;;;;;;34.30;21.50;;;;;;;2.96;70.87;98495.73;1744742;82;21308;-67
2021/03/17 00:02:46;;;;;;;32.70;21.90;;;;;;;2.86;70.70;98486.77;1722151;83;21133;-68
2021/03/17 00:05:36;;;;;;;32.50;19.62;;;;;;;2.74;70.64;98486.55;1722247;83;21138;-67
2021/03/17 00:08:21;;;;;;;30.02;19.15;;;;;;;2.67;70.97;98480.00;1722123;83;21165;-68
2021/03/17 00:11:08;;;;;;;31.10;20.37;;;;;;;2.81;70.81;98480.50;1733683;82;21087;-68
2021/03/17 00:13:53;;;;;;;34.33;20.27;;;;;;;2.78;70.97;98482.00;1757684;81;21204;-68
2021/03/17 00:16:39;;;;;;;30.70;18.70;;;;;;;2.68;70.73;98476.46;1763200;81;21186;-67
2021/03/17 00:19:25;;;;;;;23.20;17.27;;;;;;;2.60;71.00;98479.52;1763466;81;21264;-68
2021/03/17 00:22:11;;;;;;;30.00;19.12;;;;;;;2.68;70.91;98470.41;1760302;81;21307;-66
2021/03/17 00:24:57;;;;;;;29.70;19.10;;;;;;;2.74;70.76;98469.58;1763491;81;21695;-68
2021/03/17 00:27:43;;;;;;;33.88;21.50;;;;;;;2.67;70.94;98469.55;1763378;81;21145;-68
2021/03/17 00:30:31;;;;;;;34.18;18.67;;;;;;;2.61;71.17;98475.16;1763065;81;21208;-68
2021/03/17 00:33:17;;;;;;;27.30;16.82;;;;;;;2.55;71.12;98481.56;1750318;81;21156;-68
2021/03/17 00:36:03;;;;;;;32.65;17.80;;;;;;;2.73;70.82;98466.59;1733256;83;21212;-69
2021/03/17 00:38:49;;;;;;;30.55;18.52;;;;;;;2.75;70.68;98468.66;1733158;83;21196;-68
2021/03/17 00:41:34;;;;;;;30.57;17.27;;;;;;;2.70;70.86;98474.62;1739007;81;21421;-68
2021/03/17 00:44:22;;;;;;;30.20;18.60;;;;;;;2.66;71.00;98480.09;1733197;83;21723;-67
2021/03/17 00:47:08;;;;;;;29.52;18.12;;;;;;;2.61;71.09;98478.59;1733255;83;21117;-67
2021/03/17 00:49:35;;;;;;;36.40;19.65;;;;;;;2.74;70.81;98471.37;1732850;83;21188;-69
2021/03/17 00:52:05;;;;;;;34.30;19.02;;;;;;;2.76;70.53;98470.79;1733747;81;21172;-68
2021/03/17 00:54:51;;;;;;;27.20;18.95;;;;;;;2.69;70.82;98471.63;1733404;83;21133;-68
2021/03/17 00:57:29;;;;;;;34.03;20.02;;;;;;;2.69;71.07;98471.63;1780075;79;23146;-68
2021/03/17 00:59:56;;;;;;;27.13;17.70;;;;;;;2.63;71.10;98469.36;1743108;82;21300;-68
2021/03/17 01:02:26;;;;;;;34.00;18.82;;;;;;;2.69;70.91;98468.19;1732452;82;21151;-68
2021/03/17 01:04:54;;;;;;;29.07;17.65;;;;;;;2.83;70.48;98459.06;1753261;82;21636;-68
2021/03/17 01:07:22;;;;;;;30.20;16.75;;;;;;;2.79;70.45;98456.27;1753182;82;21781;-68
2021/03/17 01:09:49;;;;;;;33.63;17.37;;;;;;;2.71;70.38;98452.80;1753002;82;21175;-68
2021/03/17 01:12:17;;;;;;;25.20;15.65;;;;;;;2.67;70.55;98455.20;1745459;81;21603;-69
2021/03/17 01:14:46;;;;;;;27.22;16.00;;;;;;;2.65;70.66;98463.60;1723343;83;21706;-68
2021/03/17 01:17:14;;;;;;;24.57;16.82;;;;;;;2.79;70.41;98464.10;1723352;83;21206;-68
2021/03/17 01:19:42;;;;;;;25.05;16.02;;;;;;;2.79;70.53;98462.31;1723178;83;21309;-68
2021/03/17 01:22:09;;;;;;;27.67;17.40;;;;;;;2.76;70.62;98452.06;1728422;82;21577;-68
2021/03/17 01:24:36;;;;;;;26.00;17.07;;;;;;;2.72;70.68;98466.20;1727026;82;21167;-68
2021/03/17 01:27:04;;;;;;;23.10;17.00;;;;;;;2.69;70.71;98458.57;1723304;83;21127;-68
2021/03/17 01:29:32;;;;;;;26.20;16.12;;;;;;;2.75;70.54;98463.44;1723165;83;21119;-68
2021/03/17 01:31:59;;;;;;;22.87;15.03;;;;;;;2.89;70.32;98456.55;1723063;83;21151;-68
2021/03/17 01:34:27;;;;;;;22.40;15.48;;;;;;;2.83;70.30;98451.23;1723875;82;21170;-68
2021/03/17 01:36:54;;;;;;;25.65;15.03;;;;;;;2.74;70.52;98459.14;1723096;83;21202;-68
2021/03/17 01:39:21;;;;;;;22.07;14.10;;;;;;;2.69;70.56;98459.05;1723294;82;21587;-68
2021/03/17 01:41:49;;;;;;;22.67;13.85;;;;;;;2.69;70.64;98461.18;1723109;83;21190;-68
2021/03/17 01:44:16;;;;;;;23.67;15.30;;;;;;;2.83;70.33;98459.06;1741705;82;21579;-68
2021/03/17 01:46:45;;;;;;;28.52;14.65;;;;;;;2.81;70.25;98448.34;1722980;83;21175;-68
2021/03/17 01:49:12;;;;;;;22.70;14.25;;;;;;;2.75;70.41;98445.16;1723127;83;21187;-68
2021/03/17 01:51:40;;;;;;;26.62;14.15;;;;;;;2.68;70.55;98451.66;1720302;83;21603;-68
2021/03/17 01:54:10;;;;;;;19.95;12.40;;;;;;;2.63;70.61;98451.09;1719015;83;21190;-68
2021/03/17 01:56:38;;;;;;;19.32;12.50;;;;;;;2.69;70.45;98437.69;1687516;84;21144;-68
2021/03/17 01:59:05;;;;;;;19.10;13.10;;;;;;;2.79;70.23;98440.13;1681790;85;21159;-68
2021/03/17 02:01:32;;;;;;;21.23;11.83;;;;;;;2.73;70.16;98445.70;1681810;85;21159;-68
2021/03/17 02:04:02;;;;;;;20.92;14.18;;;;;;;2.62;70.26;98441.58;1694759;84;21151;-68
2021/03/17 02:06:30;;;;;;;20.95;12.98;;;;;;;2.55;70.41;98444.19;1709389;84;21179;-68
2021/03/17 02:08:57;;;;;;;20.75;12.60;;;;;;;2.61;70.14;98444.66;1709729;84;21616;-68
2021/03/17 02:11:24;;;;;;;19.48;13.03;;;;;;;2.68;69.92;98456.88;1709698;84;21187;-68
2021/03/17 02:14:20;;;;;;;19.80;13.03;;;;;;;2.61;70.18;98449.05;1701268;84;21326;-68
2021/03/17 02:16:57;;;;;;;18.10;11.60;;;;;;;2.57;70.46;98443.62;1780251;79;23412;-68
2021/03/17 02:19:47;;;;;;;22.77;13.03;;;;;;;2.51;70.53;98453.14;1752952;82;21191;-68
2021/03/17 02:22:23;;;;;;;17.65;12.35;;;;;;;2.62;70.08;98446.35;1752937;81;21190;-67
2021/03/17 02:25:23;;;;;;;20.62;12.73;;;;;;;2.57;69.99;98447.53;1752963;82;21104;-67
2021/03/17 02:28:19;;;;;;;22.85;13.20;;;;;;;2.48;70.23;98455.91;1753165;82;21187;-67
2021/03/17 02:31:08;;;;;;;21.05;11.73;;;;;;;2.40;70.38;98453.27;1753033;82;21301;-68
2021/03/17 02:33:50;;;;;;;25.48;12.78;;;;;;;2.53;70.27;98440.81;1752928;82;21195;-67
2021/03/17 02:36:46;;;;;;;23.77;12.82;;;;;;;2.55;70.23;98445.50;1752563;82;21151;-68
2021/03/17 02:39:19;;;;;;;30.25;14.10;;;;;;;2.48;70.40;98445.47;1728918;82;21639;-67
2021/03/17 02:41:52;;;;;;;21.40;11.63;;;;;;;2.36;70.36;98444.41;1753553;82;21280;-67
2021/03/17 02:44:19;;;;;;;21.97;12.98;;;;;;;2.39;70.28;98451.61;1738632;82;21175;-67
2021/03/17 02:46:46;;;;;;;22.50;12.80;;;;;;;2.49;70.02;98440.63;1679724;85;21202;-67
2021/03/17 02:49:20;;;;;;;22.45;12.58;;;;;;;2.41;69.99;98447.13;1679649;85;21198;-67
2021/03/17 02:51:50;;;;;;;19.07;12.50;;;;;;;2.36;70.21;98437.89;1679623;85;21190;-67
2021/03/17 02:54:19;;;;;;;19.12;12.10;;;;;;;2.31;70.43;98432.09;1691093;84;21261;-67
2021/03/17 02:56:54;;;;;;;24.37;12.93;;;;;;;2.44;70.27;98433.91;1708100;84;21750;-67
2021/03/17 02:59:23;;;;;;;20.30;12.47;;;;;;;2.46;70.07;98440.34;1708212;83;21147;-68
2021/03/17 03:01:53;;;;;;;25.25;12.70;;;;;;;2.39;70.02;98424.66;1707975;83;21341;-68
2021/03/17 03:04:21;;;;;;;19.27;11.50;;;;;;;2.29;70.07;98434.33;1707487;84;21194;-67
2021/03/17 03:06:49;;;;;;;22.55;13.62;;;;;;;2.34;69.92;98434.07;1706384;84;21150;-68
2021/03/17 03:09:19;;;;;;;23.92;13.13;;;;;;;2.36;69.53;98431.37;1708278;83;21162;-67
2021/03/17 03:11:46;;;;;;;22.17;12.93;;;;;;;2.32;69.52;98432.48;1707908;84;21170;-68
2021/03/17 03:14:14;;;;;;;22.87;12.85;;;;;;;2.24;69.79;98427.70;1708006;84;21170;-68
2021/03/17 03:16:42;;;;;;;22.30;12.30;;;;;;;2.30;69.82;98433.84;1685764;83;21574;-67
2021/03/17 03:19:09;;;;;;;25.25;13.65;;;;;;;2.38;69.66;98431.66;1625428;84;21718;-67
2021/03/17 03:21:37;;;;;;;18.40;11.90;;;;;;;2.34;69.59;98441.90;1695294;84;21150;-68
2021/03/17 03:24:06;;;;;;;28.07;13.65;;;;;;;2.27;69.72;98438.78;1695616;83;21627;-67
2021/03/17 03:26:34;;;;;;;25.23;13.55;;;;;;;2.25;69.71;98445.87;1684480;84;21306;-67
2021/03/17 03:29:03;;;;;;;25.65;12.55;;;;;;;2.29;69.72;98428.28;1666899;86;21195;-67
2021/03/17 03:31:32;;;;;;;32.17;13.45;;;;;;;2.27;69.95;98431.43;1666924;86;21199;-67
2021/03/17 03:34:00;;;;;;;27.40;13.15;;;;;;;2.40;69.75;98436.78;1666919;86;21195;-67
2021/03/17 03:36:30;;;;;;;29.00;14.30;;;;;;;2.38;69.69;98434.27;1634797;85;21643;-67
2021/03/17 03:39:00;;;;;;;30.02;13.68;;;;;;;2.32;69.69;98438.52;1695023;84;21155;-68
2021/03/17 03:41:28;;;;;;;25.62;14.10;;;;;;;2.23;69.74;98429.45;1695038;83;21313;-68
2021/03/17 03:43:55;;;;;;;23.32;14.25;;;;;;;2.24;69.93;98436.36;1695066;83;21321;-67
2021/03/17 03:49:01;;;;;;;29.25;14.43;;;;;;;2.31;69.91;98443.84;1778692;79;23319;-68
2021/03/17 03:51:31;;;;;;;26.35;15.03;;;;;;;2.32;69.61;98437.70;1752923;81;21147;-68
2021/03/17 03:54:25;;;;;;;26.52;13.20;;;;;;;2.28;69.65;98437.03;1723161;83;21159;-68
2021/03/17 03:57:03;;;;;;;25.05;13.08;;;;;;;2.23;69.88;98441.20;1737294;82;21111;-68
2021/03/17 03:59:34;;;;;;;19.32;12.18;;;;;;;2.25;69.97;98438.48;1753261;82;21588;-68
2021/03/17 04:02:02;;;;;;;22.98;14.10;;;;;;;2.37;69.75;98439.58;1753011;82;21104;-68
2021/03/17 04:04:51;;;;;;;22.85;13.43;;;;;;;2.30;69.89;98436.45;1752998;82;21183;-68
2021/03/17 04:07:18;;;;;;;21.65;14.28;;;;;;;2.24;70.07;98432.45;1820197;78;21127;-68
2021/03/17 04:09:51;;;;;;;24.85;13.80;;;;;;;2.27;70.05;98415.77;1793691;80;21170;-68
2021/03/17 04:12:21;;;;;;;22.40;13.20;;;;;;;2.11;69.59;98377.54;1740085;81;21102;-68
2021/03/17 04:14:51;;;;;;;24.98;14.70;;;;;;;2.36;69.82;98425.67;1803983;78;21138;-68
2021/03/17 04:17:30;;;;;;;28.05;13.90;;;;;;;2.29;70.02;98424.37;1806278;78;21150;-68
2021/03/17 04:20:13;;;;;;;23.87;13.25;;;;;;;2.26;70.10;98428.44;1794228;80;21128;-68
2021/03/17 04:22:40;;;;;;;26.62;14.25;;;;;;;2.40;69.94;98422.42;1796724;78;21584;-69
2021/03/17 04:25:08;;;;;;;25.35;13.60;;;;;;;2.37;69.84;98436.97;1715734;82;21189;-69
2021/03/17 04:27:35;;;;;;;25.50;14.65;;;;;;;2.28;69.95;98423.51;1761180;81;21187;-70
2021/03/17 04:30:05;;;;;;;25.60;13.28;;;;;;;2.23;70.22;98421.63;1741726;82;21198;-69
2021/03/17 04:32:33;;;;;;;28.77;14.18;;;;;;;2.32;69.92;98422.87;1804061;78;21169;-69
2021/03/17 04:35:01;;;;;;;27.20;14.15;;;;;;;2.38;69.82;98417.75;1793559;80;21603;-69
2021/03/17 04:37:30;;;;;;;29.12;13.78;;;;;;;2.34;69.95;98420.17;1793810;79;21540;-69
2021/03/17 04:39:58;;;;;;;19.67;12.20;;;;;;;2.29;70.16;98423.06;1740306;82;21689;-69
2021/03/17 04:42:26;;;;;;;20.57;13.88;;;;;;;2.32;70.08;98416.35;1765211;80;21634;-68
2021/03/17 04:44:55;;;;;;;24.27;13.90;;;;;;;2.48;69.69;98413.67;1729170;82;21198;-68
2021/03/17 04:47:22;;;;;;;20.68;13.20;;;;;;;2.44;69.56;98416.09;1743083;82;21200;-68
2021/03/17 04:49:50;;;;;;;23.00;13.85;;;;;;;2.37;69.52;98411.70;1743126;82;21583;-68
2021/03/17 04:52:18;;;;;;;26.02;13.00;;;;;;;2.35;69.71;98414.86;1733837;81;21599;-68
2021/03/17 04:54:46;;;;;;;21.70;12.98;;;;;;;2.48;69.31;98411.54;1717950;82;21209;-68
2021/03/17 04:57:22;;;;;;;31.35;14.15;;;;;;;2.47;69.45;98415.93;1773647;81;21166;-68
2021/03/17 04:59:50;;;;;;;27.22;13.88;;;;;;;2.42;69.54;98408.36;1742572;82;21158;-68
2021/03/17 05:02:24;;;;;;;21.17;12.75;;;;;;;2.38;69.73;98410.78;1770827;81;21821;-68
2021/03/17 05:04:52;;;;;;;24.70;13.88;;;;;;;2.47;69.66;98414.63;1762088;81;21179;-68
2021/03/17 05:07:21;;;;;;;28.35;14.03;;;;;;;2.53;69.45;98406.44;1763544;81;21161;-68
2021/03/17 05:09:48;;;;;;;24.43;15.00;;;;;;;2.46;69.66;98416.37;1764580;81;21131;-68
2021/03/17 05:12:16;;;;;;;24.72;12.60;;;;;;;2.42;69.69;98404.92;1761945;81;21507;-68
2021/03/17 05:14:45;;;;;;;30.57;14.00;;;;;;;2.47;69.61;98400.27;1733197;83;21194;-68
2021/03/17 05:17:13;;;;;;;24.85;13.88;;;;;;;2.59;69.30;98406.53;1765666;81;21309;-68
2021/03/17 05:19:42;;;;;;;21.30;13.32;;;;;;;2.55;69.46;98403.26;1759745;81;21160;-68
2021/03/17 05:22:09;;;;;;;20.15;12.70;;;;;;;2.50;69.53;98405.30;1784269;80;21626;-68
2021/03/17 05:24:38;;;;;;;22.22;13.20;;;;;;;2.49;69.53;98407.53;1710561;83;21202;-67
2021/03/17 05:27:18;;;;;;;20.45;13.35;;;;;;;2.61;69.08;98411.21;1725508;83;21165;-68
2021/03/17 05:29:47;;;;;;;23.95;14.40;;;;;;;2.57;69.31;98410.55;1765608;80;21123;-68
2021/03/17 05:32:14;;;;;;;23.80;13.53;;;;;;;2.54;69.57;98416.41;1725122;83;21150;-68
2021/03/17 05:34:56;;;;;;;22.77;12.15;;;;;;;2.51;69.15;98406.98;1773113;80;21126;-67
2021/03/17 05:37:25;;;;;;;18.85;12.63;;;;;;;2.62;69.06;98403.73;1760427;81;21268;-67
2021/03/17 05:39:54;;;;;;;22.77;13.72;;;;;;;2.67;68.72;98412.12;1764149;81;21151;-67
2021/03/17 05:42:26;;;;;;;25.30;13.10;;;;;;;2.62;68.89;98413.72;1776656;80;21186;-67
2021/03/17 05:44:54;;;;;;;22.37;12.23;;;;;;;2.54;69.13;98417.23;1762638;81;21161;-68
2021/03/17 05:47:22;;;;;;;20.57;12.25;;;;;;;2.64;68.94;98413.63;1764714;81;21720;-68
2021/03/17 05:49:50;;;;;;;19.40;12.25;;;;;;;2.70;68.83;98422.41;1780100;80;21151;-68
2021/03/17 05:52:19;;;;;;;21.85;13.48;;;;;;;2.64;68.88;98413.63;1730945;83;21175;-68
2021/03/17 05:54:46;;;;;;;18.12;11.65;;;;;;;2.60;69.08;98419.48;1765289;81;21113;-69
2021/03/17 05:57:14;;;;;;;20.82;12.37;;;;;;;2.66;69.01;98414.39;1763796;81;21547;-69
2021/03/17 05:59:41;;;;;;;21.68;12.80;;;;;;;2.82;68.35;98420.00;1762469;81;21135;-68
2021/03/17 06:02:09;;;;;;;19.87;11.97;;;;;;;2.78;68.27;98421.47;1727918;83;21264;-68
2021/03/17 06:04:39;;;;;;;21.80;12.23;;;;;;;2.73;68.45;98424.81;1790464;80;21166;-69
2021/03/17 06:07:12;;;;;;;24.27;12.60;;;;;;;2.72;68.65;98423.13;1754661;80;21159;-69
2021/03/17 06:09:39;;;;;;;19.70;12.13;;;;;;;2.85;68.21;98419.80;1727246;82;21182;-68
2021/03/17 06:12:08;;;;;;;25.37;12.85;;;;;;;2.84;67.96;98420.28;1737764;82;21147;-68
2021/03/17 06:14:36;;;;;;;21.55;11.97;;;;;;;2.78;68.13;98426.69;1737759;82;21130;-68
2021/03/17 06:17:08;;;;;;;24.18;12.05;;;;;;;2.73;68.38;98426.13;1737893;82;21337;-68
2021/03/17 06:19:36;;;;;;;22.15;12.68;;;;;;;2.79;68.24;98424.45;1737746;82;21170;-68
2021/03/17 06:22:03;;;;;;;19.00;11.10;;;;;;;2.90;67.68;98428.20;1737985;82;21353;-68
2021/03/17 06:24:32;;;;;;;19.80;12.43;;;;;;;2.88;67.74;98415.23;1737728;82;21199;-68
2021/03/17 06:26:59;;;;;;;21.07;12.85;;;;;;;2.82;68.15;98411.69;1737813;82;21241;-68
2021/03/17 06:29:26;;;;;;;19.07;12.05;;;;;;;2.83;68.09;98421.68;1737992;82;21166;-68
2021/03/17 06:31:54;;;;;;;23.35;12.10;;;;;;;2.97;67.78;98413.84;1737841;82;21286;-68
2021/03/17 06:34:21;;;;;;;22.60;13.22;;;;;;;2.95;67.87;98416.56;1737755;82;21218;-68
2021/03/17 06:36:52;;;;;;;24.67;12.95;;;;;;;2.90;67.85;98412.53;1737762;82;21206;-68
2021/03/17 06:39:20;;;;;;;23.57;12.10;;;;;;;2.84;67.79;98412.45;1737815;82;21466;-68
2021/03/17 06:41:51;;;;;;;24.75;12.50;;;;;;;2.87;67.91;98415.34;1737796;82;21733;-68
2021/03/17 06:44:24;;;;;;;21.23;11.33;;;;;;;2.88;68.00;98415.72;1737857;82;21189;-68
2021/03/17 06:47:15;;;;;;;22.05;11.80;;;;;;;2.93;67.68;98413.19;1712995;82;21146;-69
2021/03/17 06:49:49;;;;;;;20.25;11.50;;;;;;;3.07;67.46;98422.80;1747780;82;21290;-69
2021/03/17 06:52:38;;;;;;;25.75;12.33;;;;;;;3.02;67.44;98411.80;1748007;82;21179;-68
2021/03/17 06:55:16;;;;;;;16.12;11.33;;;;;;;3.00;67.82;98413.65;1730407;82;21136;-68
2021/03/17 06:57:47;;;;;;;18.07;11.33;;;;;;;3.09;67.53;98415.70;1756436;81;21107;-69
2021/03/17 07:00:20;;;;;;;19.12;12.03;;;;;;;3.24;66.55;98419.62;1720090;82;21158;-68
2021/03/17 07:03:07;;;;;;;24.45;12.68;;;;;;;3.21;66.78;98411.52;1708318;84;21721;-68
2021/03/17 07:05:42;;;;;;;21.02;11.85;;;;;;;3.16;67.08;98424.02;1684083;84;21174;-68
2021/03/17 07:08:29;;;;;;;20.32;11.48;;;;;;;3.17;67.11;98424.84;1721747;83;21313;-68
2021/03/17 07:11:00;;;;;;;21.42;12.28;;;;;;;3.33;66.74;98433.42;1731755;83;21163;-68
2021/03/17 07:13:29;;;;;;;26.65;13.00;;;;;;;3.33;66.67;98429.98;1723950;83;21742;-68
2021/03/17 07:15:59;;;;;;;22.65;13.25;;;;;;;3.30;66.47;98419.70;1725593;82;21544;-68
2021/03/17 07:18:31;;;;;;;21.30;12.03;;;;;;;3.27;66.20;98420.73;1721827;83;21511;-69
2021/03/17 07:21:05;;;;;;;20.48;12.13;;;;;;;3.25;66.39;98423.92;1731700;83;21649;-68
2021/03/17 07:23:37;;;;;;;24.20;14.00;;;;;;;3.42;66.32;98417.64;1718020;83;21148;-68
2021/03/17 07:26:17;;;;;;;23.20;13.72;;;;;;;3.44;65.80;98407.95;1717537;83;21659;-68
2021/03/17 07:28:57;;;;;;;25.97;14.20;;;;;;;3.41;65.99;98410.73;1725081;83;21596;-68
2021/03/17 07:31:31;;;;;;;26.65;12.90;;;;;;;3.36;65.72;98411.01;1709956;83;21146;-68
2021/03/17 07:34:25;;;;;;;20.62;12.33;;;;;;;3.37;66.26;98411.39;1719068;83;21361;-68
2021/03/17 07:37:02;;;;;;;22.40;14.33;;;;;;;3.52;66.00;98412.70;1713457;83;21168;-68
2021/03/17 07:39:36;;;;;;;23.87;13.78;;;;;;;3.52;65.28;98410.08;1729424;83;21195;-68
2021/03/17 07:42:07;;;;;;;27.50;13.75;;;;;;;3.48;65.63;98410.73;1731995;83;21147;-68
2021/03/17 07:44:37;;;;;;;28.27;14.23;;;;;;;3.43;65.69;98416.23;1728537;83;21167;-68
2021/03/17 07:47:07;;;;;;;24.07;14.20;;;;;;;3.44;65.71;98409.25;1725936;83;21147;-68
2021/03/17 07:49:43;;;;;;;24.70;14.35;;;;;;;3.49;65.65;98410.25;1729422;83;21190;-68
2021/03/17 07:52:28;;;;;;;24.45;13.08;;;;;;;3.49;65.63;98414.17;1708134;83;21336;-68
2021/03/17 07:55:02;;;;;;;29.27;14.23;;;;;;;3.62;65.19;98420.33;1716760;83;21138;-68
2021/03/17 07:57:29;;;;;;;23.47;13.40;;;;;;;3.70;65.08;98424.59;1732483;82;21262;-69
2021/03/17 07:59:57;;;;;;;22.58;13.28;;;;;;;3.69;64.89;98417.67;1706988;83;21183;-68
2021/03/17 08:02:24;;;;;;;24.67;14.73;;;;;;;3.67;64.77;98417.40;1750020;82;21186;-69
2021/03/17 08:04:52;;;;;;;26.93;13.85;;;;;;;3.68;64.63;98406.84;1735117;82;21228;-68
2021/03/17 08:07:19;;;;;;;24.90;13.45;;;;;;;3.70;65.05;98408.90;1720997;81;21111;-68
2021/03/17 08:09:48;;;;;;;27.25;14.38;;;;;;;3.84;64.42;98398.87;1779267;80;21123;-68
2021/03/17 08:12:17;;;;;;;24.55;13.68;;;;;;;3.88;64.23;98412.11;1792255;79;21684;-67
2021/03/17 08:14:45;;;;;;;26.70;14.40;;;;;;;3.86;64.39;98415.31;1764977;80;21186;-68
2021/03/17 08:17:13;;;;;;;28.00;13.75;;;;;;;3.85;64.66;98418.00;1781921;80;21166;-68
2021/03/17 08:19:42;;;;;;;22.15;12.40;;;;;;;3.83;64.71;98402.41;1746561;80;21197;-68
2021/03/17 08:22:11;;;;;;;21.45;12.43;;;;;;;3.82;64.63;98408.58;1756170;80;21216;-68
2021/03/17 08:24:38;;;;;;;25.92;13.28;;;;;;;3.95;64.56;98403.39;1800893;79;21596;-68
2021/03/17 08:27:16;;;;;;;24.00;13.93;;;;;;;3.90;64.41;98395.00;1726571;81;21172;-68
2021/03/17 08:29:49;;;;;;;24.23;13.78;;;;;;;3.84;64.63;98400.66;1744922;82;21289;-68
2021/03/17 08:32:19;;;;;;;22.60;12.03;;;;;;;3.78;65.15;98409.72;1732079;82;21580;-67
2021/03/17 08:34:56;;;;;;;20.62;11.53;;;;;;;3.79;65.45;98404.86;1803664;79;21162;-68
2021/03/17 08:37:51;;;;;;;24.30;13.55;;;;;;;3.93;65.28;98407.91;1787556;79;21171;-69
2021/03/17 08:40:35;;;;;;;26.10;12.88;;;;;;;3.89;65.25;98407.73;1773691;79;21152;-68
2021/03/17 08:43:33;;;;;;;21.35;11.63;;;;;;;3.84;65.39;98398.05;1790126;79;21143;-68
2021/03/17 08:46:17;;;;;;;21.75;11.73;;;;;;;3.79;65.82;98404.04;1774558;79;21174;-69
2021/03/17 08:49:05;;;;;;;22.13;11.88;;;;;;;3.89;65.78;98397.28;1796278;79;21126;-69
2021/03/17 08:51:52;;;;;;;20.90;12.93;;;;;;;3.93;65.55;98410.52;1764859;79;21170;-68
2021/03/17 08:54:37;;;;;;;22.80;12.05;;;;;;;3.88;65.47;98407.36;1791140;79;21221;-68
2021/03/17 08:57:09;;;;;;;19.30;11.80;;;;;;;3.83;65.71;98409.44;1782088;79;21602;-69
2021/03/17 08:59:41;;;;;;;18.57;12.28;;;;;;;3.91;65.72;98405.39;1779774;79;22136;-68
2021/03/17 09:02:29;;;;;;;20.60;12.37;;;;;;;4.05;65.17;98408.42;1789447;79;21575;-68
2021/03/17 09:05:04;;;;;;;26.30;12.82;;;;;;;4.04;65.13;98404.12;1783202;79;21675;-67
2021/03/17 09:07:34;;;;;;;24.63;12.88;;;;;;;3.99;65.21;98407.52;1794438;79;21163;-67
2021/03/17 09:10:12;;;;;;;20.10;12.10;;;;;;;3.95;65.37;98409.94;1777676;79;22329;-67
2021/03/17 09:15:24;;;;;;;22.17;12.00;;;;;;;4.26;65.01;98398.80;1791849;78;22733;-68
2021/03/17 09:17:59;;;;;;;22.58;12.73;;;;;;;4.24;64.59;98398.05;1776252;79;21134;-69
2021/03/17 09:20:40;;;;;;;22.60;12.58;;;;;;;4.24;64.71;98412.44;1684576;83;21193;-68
2021/03/17 09:23:18;;;;;;;24.70;12.75;;;;;;;4.24;64.51;98401.97;1691297;84;21274;-68
2021/03/17 09:25:56;;;;;;;21.73;11.88;;;;;;;4.25;64.69;98407.58;1731557;81;21180;-68
2021/03/17 09:28:27;;;;;;;20.20;11.15;;;;;;;4.43;64.73;98414.20;1695320;83;21611;-68
2021/03/17 09:31:00;;;;;;;22.00;12.10;;;;;;;4.54;64.39;98412.19;1728408;81;21506;-68
2021/03/17 09:33:34;;;;;;;26.07;13.65;;;;;;;4.24;63.49;98362.23;1748548;81;21505;-68
2021/03/17 09:36:12;;;;;;;21.02;11.73;;;;;;;4.53;63.44;98413.61;1727502;81;21151;-67
2021/03/17 09:38:42;;;;;;;20.23;11.20;;;;;;;4.46;63.44;98409.72;1752426;81;21326;-68
2021/03/17 09:41:21;;;;;;;20.20;11.48;;;;;;;4.48;63.77;98423.06;1700045;83;21175;-68
2021/03/17 09:44:02;;;;;;;24.37;11.93;;;;;;;4.67;63.65;98427.09;1726845;81;21158;-67
2021/03/17 09:46:33;;;;;;;20.30;12.05;;;;;;;4.66;63.20;98419.69;1716210;82;21144;-68
2021/03/17 09:49:07;;;;;;;25.08;11.90;;;;;;;4.59;63.16;98417.95;1685114;84;21179;-68
2021/03/17 09:51:38;;;;;;;19.67;11.80;;;;;;;4.54;63.07;98422.66;1682599;84;21197;-68
2021/03/17 09:54:09;;;;;;;18.65;11.08;;;;;;;4.49;63.16;98430.44;1717178;82;21652;-67
2021/03/17 09:56:47;;;;;;;18.10;10.93;;;;;;;4.51;63.56;98425.95;1699263;84;21201;-68
2021/03/17 09:59:32;;;;;;;23.50;11.43;;;;;;;4.68;63.29;98425.67;1714893;83;21172;-67
2021/03/17 10:02:04;;;;;;;18.95;10.95;;;;;;;4.68;62.89;98423.05;1710175;82;21172;-68
2021/03/17 10:04:36;;;;;;;20.90;11.35;;;;;;;4.61;63.03;98420.95;1683973;84;21315;-68
2021/03/17 10:07:05;;;;;;;21.05;10.78;;;;;;;4.55;63.02;98422.18;1681936;84;21175;-68
2021/03/17 10:09:34;;;;;;;18.48;10.88;;;;;;;4.54;63.53;98417.88;1680176;85;21173;-67
2021/03/17 10:12:15;;;;;;;18.17;11.08;;;;;;;4.59;63.54;98423.64;1657030;85;21345;-68
2021/03/17 10:14:46;;;;;;;22.05;10.80;;;;;;;4.69;63.14;98420.80;1679499;84;21970;-68
2021/03/17 10:17:17;;;;;;;17.37;10.28;;;;;;;4.86;62.75;98417.48;1682190;84;21126;-69
2021/03/17 10:19:58;;;;;;;16.20;10.10;;;;;;;4.83;62.63;98412.47;1728735;82;21606;-68
2021/03/17 10:22:28;;;;;;;18.95;11.10;;;;;;;4.76;62.67;98408.95;1715116;82;21180;-68
2021/03/17 10:25:02;;;;;;;18.65;11.10;;;;;;;4.69;63.10;98405.09;1696505;82;21177;-69
2021/03/17 10:27:39;;;;;;;21.70;11.57;;;;;;;4.68;62.99;98409.95;1716221;82;21166;-69
2021/03/17 10:30:16;;;;;;;20.50;10.30;;;;;;;4.67;63.01;98414.00;1733470;82;21172;-69
2021/03/17 10:32:45;;;;;;;18.23;9.78;;;;;;;4.72;63.20;98407.48;1684380;84;21160;-69
2021/03/17 10:35:17;;;;;;;18.10;10.08;;;;;;;4.88;62.40;98413.82;1677582;84;21342;-69
2021/03/17 10:37:46;;;;;;;17.15;9.90;;;;;;;4.86;62.50;98408.31;1709891;82;21654;-69
2021/03/17 10:40:20;;;;;;;18.15;9.90;;;;;;;4.78;62.24;98404.91;1705262;82;21217;-69
2021/03/17 10:42:59;;;;;;;18.73;10.40;;;;;;;4.78;62.55;98404.09;1723413;81;21149;-69
2021/03/17 10:45:49;;;;;;;17.60;9.55;;;;;;;4.78;62.89;98409.33;1711967;82;21166;-69
2021/03/17 10:51:06;;;;;;;18.55;9.53;;;;;;;4.91;62.68;98407.53;1776469;79;23401;-68
2021/03/17 10:53:34;;;;;;;16.63;9.07;;;;;;;4.86;62.45;98410.94;1742806;80;21166;-67
2021/03/17 10:56:04;;;;;;;18.02;9.33;;;;;;;4.82;62.74;98416.88;1736498;80;21285;-68
2021/03/17 10:58:34;;;;;;;19.00;9.95;;;;;;;4.82;62.66;98409.48;1705933;82;21299;-68
2021/03/17 11:01:02;;;;;;;18.92;9.23;;;;;;;4.84;63.10;98412.84;1740664;82;21135;-69
2021/03/17 11:03:35;;;;;;;16.05;8.93;;;;;;;4.83;62.73;98401.99;1752596;80;21182;-69
2021/03/17 11:06:17;;;;;;;17.57;8.88;;;;;;;4.89;62.84;98413.37;1695632;84;21154;-69
2021/03/17 11:08:48;;;;;;;15.93;9.40;;;;;;;5.00;62.23;98409.99;1734582;82;21099;-69
2021/03/17 11:11:17;;;;;;;18.07;9.20;;;;;;;4.93;62.64;98422.20;1735301;80;21321;-69
2021/03/17 11:13:46;;;;;;;14.40;8.78;;;;;;;4.89;63.11;98414.67;1723049;82;21202;-69
2021/03/17 11:16:36;;;;;;;20.77;9.00;;;;;;;4.85;63.16;98410.59;1757382;80;21158;-69
2021/03/17 11:19:11;;;;;;;13.88;8.58;;;;;;;4.84;63.50;98406.30;1733643;82;21686;-69
2021/03/17 11:21:45;;;;;;;15.88;7.83;;;;;;;4.95;63.04;98410.78;1710871;80;21127;-69
2021/03/17 11:24:19;;;;;;;11.80;7.42;;;;;;;5.08;61.78;98412.45;1750431;80;21175;-69
2021/03/17 11:26:48;;;;;;;16.05;8.00;;;;;;;5.05;61.03;98407.44;1732899;82;21135;-68
2021/03/17 11:29:22;;;;;;;13.03;7.55;;;;;;;4.98;61.20;98412.73;1737800;80;21158;-69
2021/03/17 11:31:52;;;;;;;11.33;7.53;;;;;;;4.94;61.02;98407.34;1747251;82;21143;-69
2021/03/17 11:34:20;;;;;;;17.90;8.13;;;;;;;4.90;60.89;98405.39;1729063;80;21304;-70
2021/03/17 11:36:49;;;;;;;14.95;7.92;;;;;;;4.87;60.99;98406.07;1734469;80;21170;-69
2021/03/17 11:39:17;;;;;;;16.00;7.40;;;;;;;4.86;61.22;98410.48;1722815;82;21171;-69
2021/03/17 11:41:47;;;;;;;15.83;7.28;;;;;;;4.86;60.96;98405.70;1734161;80;21193;-68
2021/03/17 11:44:18;;;;;;;13.50;7.22;;;;;;;4.84;60.98;98407.12;1715271;83;21155;-70
2021/03/17 11:46:46;;;;;;;12.70;7.20;;;;;;;4.91;60.20;98408.84;1715877;82;21182;-69
2021/03/17 11:49:15;;;;;;;13.03;7.40;;;;;;;4.98;60.07;98399.63;1712336;82;21183;-69
2021/03/17 11:51:46;;;;;;;16.42;8.60;;;;;;;4.95;60.16;98405.09;1694825;84;21182;-69
2021/03/17 11:54:14;;;;;;;13.70;7.35;;;;;;;4.92;60.83;98400.05;1721488;82;21186;-69
2021/03/17 11:56:41;;;;;;;14.23;7.10;;;;;;;4.87;60.04;98400.37;1699134;81;21143;-69
2021/03/17 11:59:09;;;;;;;16.57;8.08;;;;;;;4.87;59.87;98410.00;1717337;83;21174;-69
2021/03/17 12:01:38;;;;;;;15.78;6.78;;;;;;;4.86;60.53;98417.03;1722213;82;21190;-69